sensor_id;sensor_type;location;lat;lon;timestamp;temperature;humidity
14521;DHT22;7347;50.844;4.490;2023-12-22T00:02:06;10.50;99.90
14521;DHT22;7347;50.844;4.490;2023-12-22T00:04:33;10.50;99.90
14521;DHT22;7347;50.844;4.490;2023-12-22T00:07:00;10.50;99.90
14521;DHT22;7347;50.844;4.490;2023-12-22T00:09:27;10.50;99.90
14521;DHT22;7347;50.844;4.490;2023-12-22T00:11:55;10.50;99.90
14521;DHT22;7347;50.844;4.490;2023-12-22T00:14:22;10.40;99.90
14521;DHT22;7347;50.844;4.490;2023-12-22T00:16:49;10.40;99.90
14521;DHT22;7347;50.844;4.490;2023-12-22T00:19:16;10.40;99.90
14521;DHT22;7347;50.844;4.490;2023-12-22T00:21:43;10.40;99.90
14521;DHT22;7347;50.844;4.490;2023-12-22T00:24:11;10.40;99.90
14521;DHT22;7347;50.844;4.490;2023-12-22T00:26:38;10.40;99.90
14521;DHT22;7347;50.844;4.490;2023-12-22T00:29:06;10.40;99.90
14521;DHT22;7347;50.844;4.490;2023-12-22T00:31:33;10.40;99.90
14521;DHT22;7347;50.844;4.490;2023-12-22T00:34:00;10.40;99.90
14521;DHT22;7347;50.844;4.490;2023-12-22T00:36:27;10.30;99.90
14521;DHT22;7347;50.844;4.490;2023-12-22T00:38:54;10.40;99.90
14521;DHT22;7347;50.844;4.490;2023-12-22T00:41:22;10.30;99.90
14521;DHT22;7347;50.844;4.490;2023-12-22T00:43:49;10.20;99.90
14521;DHT22;7347;50.844;4.490;2023-12-22T00:46:17;10.20;99.90
14521;DHT22;7347;50.844;4.490;2023-12-22T00:48:45;10.10;99.90
14521;DHT22;7347;50.844;4.490;2023-12-22T00:51:12;9.90;99.90
14521;DHT22;7347;50.844;4.490;2023-12-22T00:53:39;9.80;99.90
14521;DHT22;7347;50.844;4.490;2023-12-22T00:56:06;9.70;99.90
14521;DHT22;7347;50.844;4.490;2023-12-22T00:58:33;9.60;99.90
14521;DHT22;7347;50.844;4.490;2023-12-22T01:01:01;9.60;99.90
14521;DHT22;7347;50.844;4.490;2023-12-22T01:03:29;9.60;99.90
14521;DHT22;7347;50.844;4.490;2023-12-22T01:05:56;9.60;99.90
14521;DHT22;7347;50.844;4.490;2023-12-22T01:08:23;9.60;99.90
14521;DHT22;7347;50.844;4.490;2023-12-22T01:10:50;9.60;99.90
14521;DHT22;7347;50.844;4.490;2023-12-22T01:13:17;9.60;99.90
14521;DHT22;7347;50.844;4.490;2023-12-22T01:15:44;9.60;99.90
14521;DHT22;7347;50.844;4.490;2023-12-22T01:18:11;9.60;99.90
14521;DHT22;7347;50.844;4.490;2023-12-22T01:20:40;9.70;99.90
14521;DHT22;7347;50.844;4.490;2023-12-22T01:23:07;9.70;99.90
14521;DHT22;7347;50.844;4.490;2023-12-22T01:25:34;9.70;99.90
14521;DHT22;7347;50.844;4.490;2023-12-22T01:28:01;9.60;99.90
14521;DHT22;7347;50.844;4.490;2023-12-22T01:30:28;9.60;99.90
14521;DHT22;7347;50.844;4.490;2023-12-22T01:32:55;9.70;99.90
14521;DHT22;7347;50.844;4.490;2023-12-22T01:35:22;9.70;99.90
14521;DHT22;7347;50.844;4.490;2023-12-22T01:37:50;9.80;99.90
14521;DHT22;7347;50.844;4.490;2023-12-22T01:40:17;9.80;99.90
14521;DHT22;7347;50.844;4.490;2023-12-22T01:42:44;9.80;99.90
14521;DHT22;7347;50.844;4.490;2023-12-22T01:45:12;9.70;99.90
14521;DHT22;7347;50.844;4.490;2023-12-22T01:47:39;9.80;99.90
14521;DHT22;7347;50.844;4.490;2023-12-22T01:50:07;9.80;99.90
14521;DHT22;7347;50.844;4.490;2023-12-22T01:52:36;9.80;99.90
14521;DHT22;7347;50.844;4.490;2023-12-22T01:55:06;9.90;99.90
14521;DHT22;7347;50.844;4.490;2023-12-22T01:57:33;9.90;99.90
14521;DHT22;7347;50.844;4.490;2023-12-22T02:00:02;9.90;99.90
14521;DHT22;7347;50.844;4.490;2023-12-22T02:02:30;9.90;99.90
14521;DHT22;7347;50.844;4.490;2023-12-22T02:04:57;9.90;99.90
14521;DHT22;7347;50.844;4.490;2023-12-22T02:07:24;9.80;99.90
14521;DHT22;7347;50.844;4.490;2023-12-22T02:09:52;9.90;99.90
14521;DHT22;7347;50.844;4.490;2023-12-22T02:12:20;9.90;99.90
14521;DHT22;7347;50.844;4.490;2023-12-22T02:14:47;9.90;99.90
14521;DHT22;7347;50.844;4.490;2023-12-22T02:17:20;9.90;99.90
14521;DHT22;7347;50.844;4.490;2023-12-22T02:19:51;9.90;99.90
14521;DHT22;7347;50.844;4.490;2023-12-22T02:22:18;9.90;99.90
14521;DHT22;7347;50.844;4.490;2023-12-22T02:24:46;9.80;99.90
14521;DHT22;7347;50.844;4.490;2023-12-22T02:27:24;9.80;99.90
14521;DHT22;7347;50.844;4.490;2023-12-22T02:29:56;9.80;99.90
14521;DHT22;7347;50.844;4.490;2023-12-22T02:32:31;9.80;99.90
14521;DHT22;7347;50.844;4.490;2023-12-22T02:35:03;9.70;99.90
14521;DHT22;7347;50.844;4.490;2023-12-22T02:37:31;9.80;99.90
14521;DHT22;7347;50.844;4.490;2023-12-22T02:40:01;9.80;99.90
14521;DHT22;7347;50.844;4.490;2023-12-22T02:42:30;9.80;99.90
14521;DHT22;7347;50.844;4.490;2023-12-22T02:44:58;9.80;99.90
14521;DHT22;7347;50.844;4.490;2023-12-22T02:47:25;9.70;99.90
14521;DHT22;7347;50.844;4.490;2023-12-22T02:49:53;9.80;99.90
14521;DHT22;7347;50.844;4.490;2023-12-22T02:52:20;9.90;99.90
14521;DHT22;7347;50.844;4.490;2023-12-22T02:54:47;9.90;99.90
14521;DHT22;7347;50.844;4.490;2023-12-22T02:57:16;9.90;99.90
14521;DHT22;7347;50.844;4.490;2023-12-22T02:59:43;10.00;99.90
14521;DHT22;7347;50.844;4.490;2023-12-22T03:02:10;10.00;99.90
14521;DHT22;7347;50.844;4.490;2023-12-22T03:04:37;9.90;99.90
14521;DHT22;7347;50.844;4.490;2023-12-22T03:07:04;9.90;99.90
14521;DHT22;7347;50.844;4.490;2023-12-22T03:09:31;9.90;99.90
14521;DHT22;7347;50.844;4.490;2023-12-22T03:12:00;9.90;99.90
14521;DHT22;7347;50.844;4.490;2023-12-22T03:14:30;9.80;99.90
14521;DHT22;7347;50.844;4.490;2023-12-22T03:16:58;9.90;99.90
14521;DHT22;7347;50.844;4.490;2023-12-22T03:19:25;9.90;99.90
14521;DHT22;7347;50.844;4.490;2023-12-22T03:21:52;9.90;99.90
14521;DHT22;7347;50.844;4.490;2023-12-22T03:24:19;9.80;99.90
14521;DHT22;7347;50.844;4.490;2023-12-22T03:26:48;9.80;99.90
14521;DHT22;7347;50.844;4.490;2023-12-22T03:29:15;9.70;99.90
14521;DHT22;7347;50.844;4.490;2023-12-22T03:31:44;9.70;99.90
14521;DHT22;7347;50.844;4.490;2023-12-22T03:34:11;9.70;99.90
14521;DHT22;7347;50.844;4.490;2023-12-22T03:36:38;9.70;99.90
14521;DHT22;7347;50.844;4.490;2023-12-22T03:39:05;9.60;99.90
14521;DHT22;7347;50.844;4.490;2023-12-22T03:41:32;9.70;99.90
14521;DHT22;7347;50.844;4.490;2023-12-22T03:43:59;9.70;99.90
14521;DHT22;7347;50.844;4.490;2023-12-22T03:46:26;9.60;99.90
14521;DHT22;7347;50.844;4.490;2023-12-22T03:48:56;9.60;99.90
14521;DHT22;7347;50.844;4.490;2023-12-22T03:51:23;9.60;99.90
14521;DHT22;7347;50.844;4.490;2023-12-22T03:53:50;9.60;99.90
14521;DHT22;7347;50.844;4.490;2023-12-22T03:56:17;9.60;99.90
14521;DHT22;7347;50.844;4.490;2023-12-22T03:58:44;9.60;99.90
14521;DHT22;7347;50.844;4.490;2023-12-22T04:01:14;9.60;99.90
14521;DHT22;7347;50.844;4.490;2023-12-22T04:03:41;9.60;99.90
14521;DHT22;7347;50.844;4.490;2023-12-22T04:06:09;9.60;99.90
14521;DHT22;7347;50.844;4.490;2023-12-22T04:08:36;9.50;99.90
14521;DHT22;7347;50.844;4.490;2023-12-22T04:11:03;9.50;99.90
14521;DHT22;7347;50.844;4.490;2023-12-22T04:13:30;9.40;99.90
14521;DHT22;7347;50.844;4.490;2023-12-22T04:15:58;9.30;99.90
14521;DHT22;7347;50.844;4.490;2023-12-22T04:18:25;9.30;99.90
14521;DHT22;7347;50.844;4.490;2023-12-22T04:20:52;9.20;99.90
14521;DHT22;7347;50.844;4.490;2023-12-22T04:23:22;9.10;99.90
14521;DHT22;7347;50.844;4.490;2023-12-22T04:25:49;9.10;99.90
14521;DHT22;7347;50.844;4.490;2023-12-22T04:28:16;9.00;99.90
14521;DHT22;7347;50.844;4.490;2023-12-22T04:30:43;8.90;99.90
14521;DHT22;7347;50.844;4.490;2023-12-22T04:33:10;8.80;99.90
14521;DHT22;7347;50.844;4.490;2023-12-22T04:35:37;8.80;99.90
14521;DHT22;7347;50.844;4.490;2023-12-22T04:38:04;8.70;99.90
14521;DHT22;7347;50.844;4.490;2023-12-22T04:40:32;8.80;99.90
14521;DHT22;7347;50.844;4.490;2023-12-22T04:43:00;8.90;99.90
14521;DHT22;7347;50.844;4.490;2023-12-22T04:45:26;8.90;99.90
14521;DHT22;7347;50.844;4.490;2023-12-22T04:47:53;8.90;99.90
14521;DHT22;7347;50.844;4.490;2023-12-22T04:50:20;8.80;99.90
14521;DHT22;7347;50.844;4.490;2023-12-22T04:52:47;8.80;99.90
14521;DHT22;7347;50.844;4.490;2023-12-22T04:55:14;8.70;99.90
14521;DHT22;7347;50.844;4.490;2023-12-22T04:57:43;8.80;99.90
14521;DHT22;7347;50.844;4.490;2023-12-22T05:00:11;8.80;99.90
14521;DHT22;7347;50.844;4.490;2023-12-22T05:02:38;8.80;99.90
14521;DHT22;7347;50.844;4.490;2023-12-22T05:05:05;8.80;99.90
14521;DHT22;7347;50.844;4.490;2023-12-22T05:07:33;8.90;99.90
14521;DHT22;7347;50.844;4.490;2023-12-22T05:10:01;8.90;99.90
14521;DHT22;7347;50.844;4.490;2023-12-22T05:12:28;8.90;99.90
14521;DHT22;7347;50.844;4.490;2023-12-22T05:14:57;8.90;99.90
14521;DHT22;7347;50.844;4.490;2023-12-22T05:17:24;8.90;99.90
14521;DHT22;7347;50.844;4.490;2023-12-22T05:19:51;9.00;99.90
14521;DHT22;7347;50.844;4.490;2023-12-22T05:22:18;9.00;99.90
14521;DHT22;7347;50.844;4.490;2023-12-22T05:24:45;9.00;99.90
14521;DHT22;7347;50.844;4.490;2023-12-22T05:27:12;9.00;99.90
14521;DHT22;7347;50.844;4.490;2023-12-22T05:29:39;9.10;99.90
14521;DHT22;7347;50.844;4.490;2023-12-22T05:32:08;9.10;99.90
14521;DHT22;7347;50.844;4.490;2023-12-22T05:34:35;9.20;99.90
14521;DHT22;7347;50.844;4.490;2023-12-22T05:37:03;9.30;99.90
14521;DHT22;7347;50.844;4.490;2023-12-22T05:39:30;9.30;99.90
14521;DHT22;7347;50.844;4.490;2023-12-22T05:41:57;9.40;99.90
14521;DHT22;7347;50.844;4.490;2023-12-22T05:44:24;9.40;99.90
14521;DHT22;7347;50.844;4.490;2023-12-22T05:46:55;9.40;99.90
14521;DHT22;7347;50.844;4.490;2023-12-22T05:49:23;9.50;99.90
14521;DHT22;7347;50.844;4.490;2023-12-22T05:51:51;9.50;99.90
14521;DHT22;7347;50.844;4.490;2023-12-22T05:54:18;9.60;99.90
14521;DHT22;7347;50.844;4.490;2023-12-22T05:56:46;9.60;99.90
14521;DHT22;7347;50.844;4.490;2023-12-22T05:59:13;9.60;99.90
14521;DHT22;7347;50.844;4.490;2023-12-22T06:01:40;9.60;99.90
14521;DHT22;7347;50.844;4.490;2023-12-22T06:04:07;9.60;99.90
14521;DHT22;7347;50.844;4.490;2023-12-22T06:06:36;9.60;99.90
14521;DHT22;7347;50.844;4.490;2023-12-22T06:09:04;9.60;99.90
14521;DHT22;7347;50.844;4.490;2023-12-22T06:11:31;9.60;99.90
14521;DHT22;7347;50.844;4.490;2023-12-22T06:13:58;9.60;99.90
14521;DHT22;7347;50.844;4.490;2023-12-22T06:16:25;9.60;99.90
14521;DHT22;7347;50.844;4.490;2023-12-22T06:18:52;9.70;99.90
14521;DHT22;7347;50.844;4.490;2023-12-22T06:21:19;9.70;99.90
14521;DHT22;7347;50.844;4.490;2023-12-22T06:23:47;9.70;99.90
14521;DHT22;7347;50.844;4.490;2023-12-22T06:26:14;9.80;99.90
14521;DHT22;7347;50.844;4.490;2023-12-22T06:28:41;9.70;99.90
14521;DHT22;7347;50.844;4.490;2023-12-22T06:31:16;9.80;99.90
14521;DHT22;7347;50.844;4.490;2023-12-22T06:33:45;9.80;99.90
14521;DHT22;7347;50.844;4.490;2023-12-22T06:36:18;9.70;99.90
14521;DHT22;7347;50.844;4.490;2023-12-22T06:38:47;9.70;99.90
14521;DHT22;7347;50.844;4.490;2023-12-22T06:41:21;9.70;99.90
14521;DHT22;7347;50.844;4.490;2023-12-22T06:43:48;9.70;99.90
14521;DHT22;7347;50.844;4.490;2023-12-22T06:46:16;9.70;99.90
14521;DHT22;7347;50.844;4.490;2023-12-22T06:48:43;9.70;99.90
14521;DHT22;7347;50.844;4.490;2023-12-22T06:51:17;9.60;99.90
14521;DHT22;7347;50.844;4.490;2023-12-22T06:53:46;9.60;99.90
14521;DHT22;7347;50.844;4.490;2023-12-22T06:56:17;9.60;99.90
14521;DHT22;7347;50.844;4.490;2023-12-22T06:58:44;9.60;99.90
14521;DHT22;7347;50.844;4.490;2023-12-22T07:01:17;9.60;99.90
14521;DHT22;7347;50.844;4.490;2023-12-22T07:03:45;9.60;99.90
14521;DHT22;7347;50.844;4.490;2023-12-22T07:06:13;9.60;99.90
14521;DHT22;7347;50.844;4.490;2023-12-22T07:08:40;9.70;99.90
14521;DHT22;7347;50.844;4.490;2023-12-22T07:11:09;9.70;99.90
14521;DHT22;7347;50.844;4.490;2023-12-22T07:13:36;9.70;99.90
14521;DHT22;7347;50.844;4.490;2023-12-22T07:16:04;9.70;99.90
14521;DHT22;7347;50.844;4.490;2023-12-22T07:18:32;9.80;99.90
14521;DHT22;7347;50.844;4.490;2023-12-22T07:21:00;9.70;99.90
14521;DHT22;7347;50.844;4.490;2023-12-22T07:23:27;9.70;99.90
14521;DHT22;7347;50.844;4.490;2023-12-22T07:25:54;9.70;99.90
14521;DHT22;7347;50.844;4.490;2023-12-22T07:28:22;9.70;99.90
14521;DHT22;7347;50.844;4.490;2023-12-22T07:30:49;9.80;99.90
14521;DHT22;7347;50.844;4.490;2023-12-22T07:33:16;9.80;99.90
14521;DHT22;7347;50.844;4.490;2023-12-22T07:35:43;9.80;99.90
14521;DHT22;7347;50.844;4.490;2023-12-22T07:38:10;9.80;99.90
14521;DHT22;7347;50.844;4.490;2023-12-22T07:40:37;9.80;99.90
14521;DHT22;7347;50.844;4.490;2023-12-22T07:43:05;9.90;99.90
14521;DHT22;7347;50.844;4.490;2023-12-22T07:45:33;9.90;99.90
14521;DHT22;7347;50.844;4.490;2023-12-22T07:48:00;9.90;99.90
14521;DHT22;7347;50.844;4.490;2023-12-22T07:50:27;10.00;99.90
14521;DHT22;7347;50.844;4.490;2023-12-22T07:52:54;9.90;99.90
14521;DHT22;7347;50.844;4.490;2023-12-22T07:55:21;9.90;99.90
14521;DHT22;7347;50.844;4.490;2023-12-22T07:57:48;9.90;99.90
14521;DHT22;7347;50.844;4.490;2023-12-22T08:00:16;9.90;99.90
14521;DHT22;7347;50.844;4.490;2023-12-22T08:02:45;9.80;99.90
14521;DHT22;7347;50.844;4.490;2023-12-22T08:05:13;9.90;99.90
14521;DHT22;7347;50.844;4.490;2023-12-22T08:07:41;9.90;99.90
14521;DHT22;7347;50.844;4.490;2023-12-22T08:10:08;9.90;99.90
14521;DHT22;7347;50.844;4.490;2023-12-22T08:12:36;9.90;99.90
14521;DHT22;7347;50.844;4.490;2023-12-22T08:15:03;9.90;99.90
14521;DHT22;7347;50.844;4.490;2023-12-22T08:17:31;9.90;99.90
14521;DHT22;7347;50.844;4.490;2023-12-22T08:20:00;9.90;99.90
14521;DHT22;7347;50.844;4.490;2023-12-22T08:22:27;9.90;99.90
14521;DHT22;7347;50.844;4.490;2023-12-22T08:24:54;9.90;99.90
14521;DHT22;7347;50.844;4.490;2023-12-22T08:27:21;9.90;99.90
14521;DHT22;7347;50.844;4.490;2023-12-22T08:29:48;10.00;99.90
14521;DHT22;7347;50.844;4.490;2023-12-22T08:32:15;9.90;99.90
14521;DHT22;7347;50.844;4.490;2023-12-22T08:34:42;9.90;99.90
14521;DHT22;7347;50.844;4.490;2023-12-22T08:37:10;9.80;99.90
14521;DHT22;7347;50.844;4.490;2023-12-22T08:39:37;9.80;99.90
14521;DHT22;7347;50.844;4.490;2023-12-22T08:42:04;9.80;99.90
14521;DHT22;7347;50.844;4.490;2023-12-22T08:44:31;9.70;99.90
14521;DHT22;7347;50.844;4.490;2023-12-22T08:46:58;9.70;99.90
14521;DHT22;7347;50.844;4.490;2023-12-22T08:49:25;9.80;99.90
14521;DHT22;7347;50.844;4.490;2023-12-22T08:51:52;9.80;99.90
14521;DHT22;7347;50.844;4.490;2023-12-22T08:54:20;9.90;99.90
14521;DHT22;7347;50.844;4.490;2023-12-22T08:56:48;9.90;99.90
14521;DHT22;7347;50.844;4.490;2023-12-22T08:59:15;9.90;99.90
14521;DHT22;7347;50.844;4.490;2023-12-22T09:01:42;9.90;99.90
14521;DHT22;7347;50.844;4.490;2023-12-22T09:04:10;10.00;99.90
14521;DHT22;7347;50.844;4.490;2023-12-22T09:06:37;10.00;99.90
14521;DHT22;7347;50.844;4.490;2023-12-22T09:09:05;10.00;99.90
14521;DHT22;7347;50.844;4.490;2023-12-22T09:11:34;10.00;99.90
14521;DHT22;7347;50.844;4.490;2023-12-22T09:14:01;10.00;99.90
14521;DHT22;7347;50.844;4.490;2023-12-22T09:16:28;10.10;99.90
14521;DHT22;7347;50.844;4.490;2023-12-22T09:18:55;10.20;99.90
14521;DHT22;7347;50.844;4.490;2023-12-22T09:21:23;10.20;99.90
14521;DHT22;7347;50.844;4.490;2023-12-22T09:23:50;10.30;99.90
14521;DHT22;7347;50.844;4.490;2023-12-22T09:26:17;10.30;99.90
14521;DHT22;7347;50.844;4.490;2023-12-22T09:28:46;10.30;99.90
14521;DHT22;7347;50.844;4.490;2023-12-22T09:31:13;10.30;99.90
14521;DHT22;7347;50.844;4.490;2023-12-22T09:33:41;10.30;99.90
14521;DHT22;7347;50.844;4.490;2023-12-22T09:36:08;10.40;99.90
14521;DHT22;7347;50.844;4.490;2023-12-22T09:38:36;10.30;99.90
14521;DHT22;7347;50.844;4.490;2023-12-22T09:41:03;10.30;99.90
14521;DHT22;7347;50.844;4.490;2023-12-22T09:43:31;10.40;99.90
14521;DHT22;7347;50.844;4.490;2023-12-22T09:46:03;10.40;99.90
14521;DHT22;7347;50.844;4.490;2023-12-22T09:48:31;10.40;99.90
14521;DHT22;7347;50.844;4.490;2023-12-22T09:51:02;10.40;99.90
14521;DHT22;7347;50.844;4.490;2023-12-22T09:53:30;10.40;99.90
14521;DHT22;7347;50.844;4.490;2023-12-22T09:55:58;10.50;99.90
14521;DHT22;7347;50.844;4.490;2023-12-22T09:58:26;10.40;99.90
14521;DHT22;7347;50.844;4.490;2023-12-22T10:00:54;10.50;99.90
14521;DHT22;7347;50.844;4.490;2023-12-22T10:03:24;10.50;99.90
14521;DHT22;7347;50.844;4.490;2023-12-22T10:05:52;10.60;99.90
14521;DHT22;7347;50.844;4.490;2023-12-22T10:08:20;10.60;99.90
14521;DHT22;7347;50.844;4.490;2023-12-22T10:10:47;10.70;99.90
14521;DHT22;7347;50.844;4.490;2023-12-22T10:13:18;10.70;99.90
14521;DHT22;7347;50.844;4.490;2023-12-22T10:15:45;10.70;99.90
14521;DHT22;7347;50.844;4.490;2023-12-22T10:18:13;10.60;99.90
14521;DHT22;7347;50.844;4.490;2023-12-22T10:20:42;10.60;99.90
14521;DHT22;7347;50.844;4.490;2023-12-22T10:23:11;10.70;99.90
14521;DHT22;7347;50.844;4.490;2023-12-22T10:25:40;10.80;99.90
14521;DHT22;7347;50.844;4.490;2023-12-22T10:28:10;10.80;99.90
14521;DHT22;7347;50.844;4.490;2023-12-22T10:30:40;10.80;99.90
14521;DHT22;7347;50.844;4.490;2023-12-22T10:33:07;10.90;99.90
14521;DHT22;7347;50.844;4.490;2023-12-22T10:35:34;10.90;99.90
14521;DHT22;7347;50.844;4.490;2023-12-22T10:38:04;11.00;99.90
14521;DHT22;7347;50.844;4.490;2023-12-22T10:40:31;11.00;99.90
14521;DHT22;7347;50.844;4.490;2023-12-22T10:42:59;11.10;99.90
14521;DHT22;7347;50.844;4.490;2023-12-22T10:45:27;11.10;99.90
14521;DHT22;7347;50.844;4.490;2023-12-22T10:47:57;11.00;99.90
14521;DHT22;7347;50.844;4.490;2023-12-22T10:50:25;10.90;99.90
14521;DHT22;7347;50.844;4.490;2023-12-22T10:52:52;10.90;99.90
14521;DHT22;7347;50.844;4.490;2023-12-22T10:55:21;10.80;99.90
14521;DHT22;7347;50.844;4.490;2023-12-22T10:57:48;10.80;99.90
14521;DHT22;7347;50.844;4.490;2023-12-22T11:00:16;10.80;99.90
14521;DHT22;7347;50.844;4.490;2023-12-22T11:02:47;10.80;99.90
14521;DHT22;7347;50.844;4.490;2023-12-22T11:05:16;10.70;99.90
14521;DHT22;7347;50.844;4.490;2023-12-22T11:07:48;10.70;99.90
14521;DHT22;7347;50.844;4.490;2023-12-22T11:10:19;10.70;99.90
14521;DHT22;7347;50.844;4.490;2023-12-22T11:12:48;10.60;99.90
14521;DHT22;7347;50.844;4.490;2023-12-22T11:15:18;10.60;99.90
14521;DHT22;7347;50.844;4.490;2023-12-22T11:17:46;10.60;99.90
14521;DHT22;7347;50.844;4.490;2023-12-22T11:20:16;10.60;99.90
14521;DHT22;7347;50.844;4.490;2023-12-22T11:22:43;10.60;99.90
14521;DHT22;7347;50.844;4.490;2023-12-22T11:25:12;10.60;99.90
14521;DHT22;7347;50.844;4.490;2023-12-22T11:27:42;10.60;99.90
14521;DHT22;7347;50.844;4.490;2023-12-22T11:30:12;10.60;99.90
14521;DHT22;7347;50.844;4.490;2023-12-22T11:32:41;10.60;99.90
14521;DHT22;7347;50.844;4.490;2023-12-22T11:35:11;10.60;99.90
14521;DHT22;7347;50.844;4.490;2023-12-22T11:37:39;10.70;99.90
14521;DHT22;7347;50.844;4.490;2023-12-22T11:40:08;10.60;99.90
14521;DHT22;7347;50.844;4.490;2023-12-22T11:42:38;10.70;99.90
14521;DHT22;7347;50.844;4.490;2023-12-22T11:45:11;10.70;99.90
14521;DHT22;7347;50.844;4.490;2023-12-22T11:47:41;10.70;99.90
14521;DHT22;7347;50.844;4.490;2023-12-22T11:50:09;10.70;99.90
14521;DHT22;7347;50.844;4.490;2023-12-22T11:52:36;10.80;99.90
14521;DHT22;7347;50.844;4.490;2023-12-22T11:55:05;10.80;99.90
14521;DHT22;7347;50.844;4.490;2023-12-22T11:57:34;10.80;99.90
14521;DHT22;7347;50.844;4.490;2023-12-22T12:00:06;10.80;99.90
14521;DHT22;7347;50.844;4.490;2023-12-22T12:02:35;10.90;99.90
14521;DHT22;7347;50.844;4.490;2023-12-22T12:05:04;10.90;99.90
14521;DHT22;7347;50.844;4.490;2023-12-22T12:07:41;10.80;99.90
14521;DHT22;7347;50.844;4.490;2023-12-22T12:10:11;10.90;99.90
14521;DHT22;7347;50.844;4.490;2023-12-22T12:12:38;10.80;99.90
14521;DHT22;7347;50.844;4.490;2023-12-22T12:15:10;10.80;99.90
14521;DHT22;7347;50.844;4.490;2023-12-22T12:17:41;10.80;99.90
14521;DHT22;7347;50.844;4.490;2023-12-22T12:20:09;10.90;99.90
14521;DHT22;7347;50.844;4.490;2023-12-22T12:22:38;10.90;99.90
14521;DHT22;7347;50.844;4.490;2023-12-22T12:25:09;10.80;99.90
14521;DHT22;7347;50.844;4.490;2023-12-22T12:27:38;10.70;99.90
14521;DHT22;7347;50.844;4.490;2023-12-22T12:30:12;10.80;99.90
14521;DHT22;7347;50.844;4.490;2023-12-22T12:32:43;10.90;99.90
14521;DHT22;7347;50.844;4.490;2023-12-22T12:35:12;10.90;99.90
14521;DHT22;7347;50.844;4.490;2023-12-22T12:37:40;11.00;99.90
14521;DHT22;7347;50.844;4.490;2023-12-22T12:40:11;11.10;99.90
14521;DHT22;7347;50.844;4.490;2023-12-22T12:42:38;11.10;99.90
14521;DHT22;7347;50.844;4.490;2023-12-22T12:45:07;11.10;99.90
14521;DHT22;7347;50.844;4.490;2023-12-22T12:47:34;11.10;99.90
14521;DHT22;7347;50.844;4.490;2023-12-22T12:50:03;11.00;99.90
14521;DHT22;7347;50.844;4.490;2023-12-22T12:52:30;11.00;99.90
14521;DHT22;7347;50.844;4.490;2023-12-22T12:54:58;11.00;99.90
14521;DHT22;7347;50.844;4.490;2023-12-22T12:57:26;11.10;99.90
14521;DHT22;7347;50.844;4.490;2023-12-22T12:59:53;11.10;99.90
14521;DHT22;7347;50.844;4.490;2023-12-22T13:02:21;11.10;99.90
14521;DHT22;7347;50.844;4.490;2023-12-22T13:04:49;11.20;99.90
14521;DHT22;7347;50.844;4.490;2023-12-22T13:07:25;11.20;99.90
14521;DHT22;7347;50.844;4.490;2023-12-22T13:09:52;11.30;99.90
14521;DHT22;7347;50.844;4.490;2023-12-22T13:12:23;11.30;99.90
14521;DHT22;7347;50.844;4.490;2023-12-22T13:14:52;11.30;99.90
14521;DHT22;7347;50.844;4.490;2023-12-22T13:17:20;11.30;99.90
14521;DHT22;7347;50.844;4.490;2023-12-22T13:19:47;11.20;99.90
14521;DHT22;7347;50.844;4.490;2023-12-22T13:22:15;11.20;99.90
14521;DHT22;7347;50.844;4.490;2023-12-22T13:24:54;11.30;99.90
14521;DHT22;7347;50.844;4.490;2023-12-22T13:27:21;11.30;99.90
14521;DHT22;7347;50.844;4.490;2023-12-22T13:29:49;11.30;99.90
14521;DHT22;7347;50.844;4.490;2023-12-22T13:32:18;11.30;99.90
14521;DHT22;7347;50.844;4.490;2023-12-22T13:34:50;11.30;99.90
14521;DHT22;7347;50.844;4.490;2023-12-22T13:37:18;11.30;99.90
14521;DHT22;7347;50.844;4.490;2023-12-22T13:39:46;11.30;99.90
14521;DHT22;7347;50.844;4.490;2023-12-22T13:42:17;11.30;99.90
14521;DHT22;7347;50.844;4.490;2023-12-22T13:44:47;11.30;99.90
14521;DHT22;7347;50.844;4.490;2023-12-22T13:47:16;11.30;99.90
14521;DHT22;7347;50.844;4.490;2023-12-22T13:49:43;11.30;99.90
14521;DHT22;7347;50.844;4.490;2023-12-22T13:52:25;11.30;99.90
14521;DHT22;7347;50.844;4.490;2023-12-22T13:54:54;11.20;99.90
14521;DHT22;7347;50.844;4.490;2023-12-22T13:57:24;11.20;99.90
14521;DHT22;7347;50.844;4.490;2023-12-22T13:59:51;11.10;99.90
14521;DHT22;7347;50.844;4.490;2023-12-22T14:02:22;11.20;99.90
14521;DHT22;7347;50.844;4.490;2023-12-22T14:04:49;11.10;99.90
14521;DHT22;7347;50.844;4.490;2023-12-22T14:07:16;11.10;99.90
14521;DHT22;7347;50.844;4.490;2023-12-22T14:09:44;11.10;99.90
14521;DHT22;7347;50.844;4.490;2023-12-22T14:12:12;11.10;99.90
14521;DHT22;7347;50.844;4.490;2023-12-22T14:14:39;11.10;99.90
14521;DHT22;7347;50.844;4.490;2023-12-22T14:17:06;11.10;99.90
14521;DHT22;7347;50.844;4.490;2023-12-22T14:19:33;11.10;99.90
14521;DHT22;7347;50.844;4.490;2023-12-22T14:22:00;11.10;99.90
14521;DHT22;7347;50.844;4.490;2023-12-22T14:24:27;11.20;99.90
14521;DHT22;7347;50.844;4.490;2023-12-22T14:26:55;11.30;99.90
14521;DHT22;7347;50.844;4.490;2023-12-22T14:29:24;11.30;99.90
14521;DHT22;7347;50.844;4.490;2023-12-22T14:31:51;11.30;99.90
14521;DHT22;7347;50.844;4.490;2023-12-22T14:34:18;11.20;99.90
14521;DHT22;7347;50.844;4.490;2023-12-22T14:36:46;11.30;99.90
14521;DHT22;7347;50.844;4.490;2023-12-22T14:39:13;11.30;99.90
14521;DHT22;7347;50.844;4.490;2023-12-22T14:41:40;11.30;99.90
14521;DHT22;7347;50.844;4.490;2023-12-22T14:44:08;11.30;99.90
14521;DHT22;7347;50.844;4.490;2023-12-22T14:46:39;11.40;99.90
14521;DHT22;7347;50.844;4.490;2023-12-22T14:49:06;11.30;99.90
14521;DHT22;7347;50.844;4.490;2023-12-22T14:51:36;11.40;99.90
14521;DHT22;7347;50.844;4.490;2023-12-22T14:54:04;11.40;99.90
14521;DHT22;7347;50.844;4.490;2023-12-22T14:56:31;11.40;99.90
14521;DHT22;7347;50.844;4.490;2023-12-22T14:58:58;11.40;99.90
14521;DHT22;7347;50.844;4.490;2023-12-22T15:01:26;11.40;99.90
14521;DHT22;7347;50.844;4.490;2023-12-22T15:03:54;11.40;99.90
14521;DHT22;7347;50.844;4.490;2023-12-22T15:06:21;11.40;99.90
14521;DHT22;7347;50.844;4.490;2023-12-22T15:08:48;11.40;99.90
14521;DHT22;7347;50.844;4.490;2023-12-22T15:11:15;11.40;99.90
14521;DHT22;7347;50.844;4.490;2023-12-22T15:13:42;11.40;99.90
14521;DHT22;7347;50.844;4.490;2023-12-22T15:16:09;11.60;99.90
14521;DHT22;7347;50.844;4.490;2023-12-22T15:18:36;11.50;99.90
14521;DHT22;7347;50.844;4.490;2023-12-22T15:21:05;11.50;99.90
14521;DHT22;7347;50.844;4.490;2023-12-22T15:23:32;11.50;99.90
14521;DHT22;7347;50.844;4.490;2023-12-22T15:25:59;11.50;99.90
14521;DHT22;7347;50.844;4.490;2023-12-22T15:28:26;11.50;99.90
14521;DHT22;7347;50.844;4.490;2023-12-22T15:30:53;11.50;99.90
14521;DHT22;7347;50.844;4.490;2023-12-22T15:33:20;11.50;99.90
14521;DHT22;7347;50.844;4.490;2023-12-22T15:35:47;11.50;99.90
14521;DHT22;7347;50.844;4.490;2023-12-22T15:38:16;11.60;99.90
14521;DHT22;7347;50.844;4.490;2023-12-22T15:40:43;11.60;99.90
14521;DHT22;7347;50.844;4.490;2023-12-22T15:43:10;11.60;99.90
14521;DHT22;7347;50.844;4.490;2023-12-22T15:45:37;11.60;99.90
14521;DHT22;7347;50.844;4.490;2023-12-22T15:48:05;11.70;99.90
14521;DHT22;7347;50.844;4.490;2023-12-22T15:50:32;11.60;99.90
14521;DHT22;7347;50.844;4.490;2023-12-22T15:52:59;11.60;99.90
14521;DHT22;7347;50.844;4.490;2023-12-22T15:55:27;11.60;99.90
14521;DHT22;7347;50.844;4.490;2023-12-22T15:57:54;11.60;99.90
14521;DHT22;7347;50.844;4.490;2023-12-22T16:00:22;11.50;99.90